createdAt,value
2023-02-14T00:01:27.002Z,4.40
2023-02-14T00:03:54.755Z,3.55
2023-02-14T00:06:21.845Z,3.00
2023-02-14T00:08:48.974Z,3.15
2023-02-14T00:11:19.000Z,3.20
2023-02-14T00:14:06.302Z,2.67
2023-02-14T00:16:33.416Z,3.20
2023-02-14T00:19:03.473Z,3.65
2023-02-14T00:21:36.614Z,2.72
2023-02-14T00:24:06.053Z,2.72
2023-02-14T00:26:33.415Z,2.30
2023-02-14T00:29:00.662Z,2.38
2023-02-14T00:31:27.807Z,2.95
2023-02-14T00:33:54.987Z,2.45
2023-02-14T00:36:23.072Z,2.22
2023-02-14T00:38:50.076Z,2.13
2023-02-14T00:41:19.584Z,1.83
2023-02-14T00:43:51.578Z,2.70
2023-02-14T00:46:20.573Z,3.05
2023-02-14T00:48:48.659Z,2.92
2023-02-14T00:51:17.533Z,2.78
2023-02-14T00:53:47.822Z,3.33
2023-02-14T00:56:15.369Z,3.13
2023-02-14T00:58:42.434Z,4.05
2023-02-14T01:01:09.917Z,4.25
2023-02-14T01:03:37.967Z,5.60
2023-02-14T01:06:07.247Z,8.68
2023-02-14T01:08:34.637Z,8.38
2023-02-14T01:11:17.229Z,7.60
2023-02-14T01:13:44.833Z,7.45
2023-02-14T01:16:16.037Z,7.65
2023-02-14T01:18:46.882Z,6.63
2023-02-14T01:21:28.960Z,8.82
2023-02-14T01:23:58.676Z,9.35
2023-02-14T01:26:27.042Z,9.15
2023-02-14T01:28:54.292Z,6.80
2023-02-14T01:31:24.530Z,5.45
2023-02-14T01:33:52.446Z,4.30
2023-02-14T01:36:30.086Z,8.65
2023-02-14T01:39:02.483Z,8.27
2023-02-14T01:41:32.994Z,8.98
2023-02-14T01:44:02.942Z,8.25
2023-02-14T01:46:33.247Z,7.95
2023-02-14T01:49:11.850Z,8.50
2023-02-14T01:51:45.441Z,7.53
2023-02-14T01:54:13.007Z,5.45
2023-02-14T01:56:47.758Z,5.07
2023-02-14T01:59:19.008Z,4.40
2023-02-14T02:01:49.193Z,7.55
2023-02-14T02:04:20.755Z,7.40
2023-02-14T02:09:58.671Z,7.78
2023-02-14T02:12:26.168Z,11.20
2023-02-14T02:14:56.186Z,9.20
2023-02-14T02:17:38.458Z,6.70
2023-02-14T02:20:27.253Z,6.13
2023-02-14T02:23:23.980Z,10.80
2023-02-14T02:26:00.274Z,9.13
2023-02-14T02:29:11.902Z,9.98
2023-02-14T02:31:44.701Z,9.55
2023-02-14T02:34:37.138Z,9.20
2023-02-14T02:37:33.090Z,9.48
2023-02-14T02:40:24.092Z,10.00
2023-02-14T02:43:26.370Z,9.45
2023-02-14T02:46:36.788Z,9.80
2023-02-14T02:49:48.446Z,9.20
2023-02-14T02:53:04.445Z,10.05
2023-02-14T02:56:14.576Z,10.02
2023-02-14T02:58:54.391Z,10.27
2023-02-14T03:01:27.262Z,10.60
2023-02-14T03:04:18.371Z,10.63
2023-02-14T03:06:46.074Z,10.40
2023-02-14T03:09:33.968Z,7.78
2023-02-14T03:12:12.625Z,9.18
2023-02-14T03:14:56.296Z,11.15
2023-02-14T03:17:40.285Z,8.80
2023-02-14T03:20:35.033Z,9.13
2023-02-14T03:23:32.207Z,9.13
2023-02-14T03:26:08.108Z,9.63
2023-02-14T03:28:41.075Z,9.20
2023-02-14T03:31:31.223Z,8.95
2023-02-14T03:34:19.362Z,8.80
2023-02-14T03:36:54.764Z,8.88
2023-02-14T03:39:28.146Z,8.60
2023-02-14T03:42:17.794Z,8.23
2023-02-14T03:44:47.492Z,9.38
2023-02-14T03:47:19.823Z,9.65
2023-02-14T03:50:18.823Z,9.00
2023-02-14T03:52:51.300Z,8.48
2023-02-14T03:55:28.198Z,10.48
2023-02-14T03:58:07.436Z,9.85
2023-02-14T04:00:38.990Z,9.45
2023-02-14T04:03:14.540Z,10.07
2023-02-14T04:05:43.940Z,9.98
2023-02-14T04:08:12.384Z,9.25
2023-02-14T04:10:41.991Z,8.98
2023-02-14T04:13:09.261Z,9.20
2023-02-14T04:15:39.640Z,8.00
2023-02-14T04:18:25.579Z,8.20
2023-02-14T04:21:01.398Z,7.95
2023-02-14T04:23:31.963Z,8.50
2023-02-14T04:25:58.970Z,9.38
2023-02-14T04:28:29.488Z,8.45
2023-02-14T04:30:59.728Z,9.35
2023-02-14T04:33:26.962Z,10.20
2023-02-14T04:35:57.160Z,9.48
2023-02-14T04:38:31.936Z,10.32
2023-02-14T04:40:59.407Z,10.63
2023-02-14T04:43:26.762Z,10.57
2023-02-14T04:45:54.111Z,11.23
2023-02-14T04:48:28.824Z,9.40
2023-02-14T04:50:56.900Z,10.77
2023-02-14T04:53:24.306Z,10.52
2023-02-14T04:55:52.167Z,11.35
2023-02-14T04:58:19.384Z,10.95
2023-02-14T05:00:50.020Z,12.23
2023-02-14T05:03:17.082Z,11.60
2023-02-14T05:05:46.881Z,11.68
2023-02-14T05:08:14.954Z,10.10
2023-02-14T05:10:45.192Z,9.48
2023-02-14T05:13:15.618Z,11.20
2023-02-14T05:15:44.267Z,10.40
2023-02-14T05:18:11.768Z,10.75
2023-02-14T05:20:38.777Z,9.70
2023-02-14T05:23:10.610Z,10.52
2023-02-14T05:25:41.477Z,10.88
2023-02-14T05:28:09.547Z,10.25
2023-02-14T05:30:38.094Z,11.70
2023-02-14T05:35:34.237Z,10.13
2023-02-14T05:38:01.331Z,10.18
2023-02-14T05:40:28.976Z,10.57
2023-02-14T05:42:59.317Z,10.02
2023-02-14T05:45:26.758Z,11.60
2023-02-14T05:47:53.858Z,11.70
2023-02-14T05:50:20.884Z,9.73
2023-02-14T05:52:48.122Z,11.25
2023-02-14T05:55:15.168Z,11.60
2023-02-14T05:57:42.703Z,10.85
2023-02-14T06:00:13.230Z,11.55
2023-02-14T06:02:40.998Z,12.23
2023-02-14T06:05:08.559Z,11.88
2023-02-14T06:07:38.565Z,11.38
2023-02-14T06:10:10.132Z,11.68
2023-02-14T06:12:37.313Z,9.68
2023-02-14T06:15:04.697Z,10.75
2023-02-14T06:20:15.933Z,10.35
2023-02-14T06:22:43.255Z,11.00
2023-02-14T06:25:10.331Z,10.82
2023-02-14T06:27:37.380Z,8.82
2023-02-14T06:30:05.407Z,10.68
2023-02-14T06:32:32.820Z,10.90
2023-02-14T06:34:59.835Z,10.48
2023-02-14T06:37:26.913Z,10.75
2023-02-14T06:39:53.950Z,10.05
2023-02-14T06:42:25.591Z,10.40
2023-02-14T06:44:52.806Z,9.40
2023-02-14T06:47:19.856Z,9.80
2023-02-14T06:49:47.179Z,9.68
2023-02-14T06:52:14.667Z,8.90
2023-02-14T06:54:41.694Z,9.45
2023-02-14T06:57:08.659Z,8.65
2023-02-14T06:59:35.542Z,9.00
2023-02-14T07:02:02.719Z,9.20
2023-02-14T07:04:29.967Z,9.18
2023-02-14T07:06:57.866Z,9.57
2023-02-14T07:09:33.804Z,8.25
2023-02-14T07:12:01.327Z,9.05
2023-02-14T07:14:28.412Z,8.27
2023-02-14T07:17:01.841Z,8.90
2023-02-14T07:19:29.528Z,8.60
2023-02-14T07:21:59.338Z,9.13
2023-02-14T07:24:26.287Z,8.88
2023-02-14T07:26:59.808Z,8.55
2023-02-14T07:29:26.893Z,9.18
2023-02-14T07:31:57.236Z,9.07
2023-02-14T07:34:27.679Z,9.45
2023-02-14T07:36:55.076Z,10.40
2023-02-14T07:39:34.799Z,8.88
2023-02-14T07:42:19.020Z,9.45
2023-02-14T07:44:51.728Z,8.30
2023-02-14T07:47:19.177Z,9.35
2023-02-14T07:49:51.678Z,10.15
2023-02-14T07:52:21.183Z,10.13
2023-02-14T07:54:57.537Z,10.13
2023-02-14T07:57:30.616Z,8.95
2023-02-14T08:00:00.858Z,8.85
2023-02-14T08:02:30.254Z,9.77
2023-02-14T08:04:57.533Z,9.00
2023-02-14T08:07:24.590Z,10.23
2023-02-14T08:09:51.686Z,10.25
2023-02-14T08:12:37.336Z,10.50
2023-02-14T08:15:23.212Z,9.25
2023-02-14T08:17:50.439Z,9.77
2023-02-14T08:20:19.907Z,9.73
2023-02-14T08:22:56.273Z,9.95
2023-02-14T08:25:23.433Z,10.20
2023-02-14T08:27:50.463Z,10.60
2023-02-14T08:30:20.537Z,9.15
2023-02-14T08:32:48.189Z,10.48
2023-02-14T08:35:15.612Z,9.05
2023-02-14T08:37:43.351Z,9.90
2023-02-14T08:40:10.931Z,9.60
2023-02-14T08:42:38.205Z,9.50
2023-02-14T08:45:05.683Z,9.10
2023-02-14T08:47:36.068Z,10.93
2023-02-14T08:50:05.584Z,10.43
2023-02-14T08:52:32.716Z,10.18
2023-02-14T08:55:00.174Z,10.27
2023-02-14T08:57:27.895Z,10.98
2023-02-14T08:59:55.192Z,10.57
2023-02-14T09:02:22.698Z,10.18
2023-02-14T09:04:50.128Z,11.38
2023-02-14T09:07:17.688Z,10.18
2023-02-14T09:09:45.222Z,9.77
2023-02-14T09:12:12.470Z,10.98
2023-02-14T09:14:44.113Z,9.65
2023-02-14T09:17:13.496Z,10.02
2023-02-14T09:19:40.785Z,10.38
2023-02-14T09:22:15.496Z,10.25
2023-02-14T09:24:46.535Z,11.50
2023-02-14T09:27:16.675Z,8.55
2023-02-14T09:29:43.913Z,12.15
2023-02-14T09:32:11.774Z,10.45
2023-02-14T09:34:39.136Z,11.90
2023-02-14T09:37:06.533Z,10.27
2023-02-14T09:39:33.634Z,11.38
2023-02-14T09:42:16.523Z,10.38
2023-02-14T09:44:55.175Z,11.02
2023-02-14T09:47:42.490Z,10.82
2023-02-14T09:50:30.563Z,10.25
2023-02-14T09:53:05.787Z,10.93
2023-02-14T09:56:05.039Z,9.65
2023-02-14T09:58:54.768Z,10.75
2023-02-14T10:01:29.878Z,11.02
2023-02-14T10:04:21.439Z,11.00
2023-02-14T10:06:58.122Z,10.95
2023-02-14T10:09:49.508Z,10.30
2023-02-14T10:12:40.315Z,10.50
2023-02-14T10:15:37.262Z,11.75
2023-02-14T10:18:46.762Z,10.88
2023-02-14T10:24:18.330Z,10.32
2023-02-14T10:26:48.546Z,10.63
2023-02-14T10:29:20.864Z,10.63
2023-02-14T10:32:01.559Z,10.57
2023-02-14T10:34:51.096Z,11.30
2023-02-14T10:37:28.331Z,10.80
2023-02-14T10:40:04.507Z,11.75
2023-02-14T10:42:38.990Z,13.15
2023-02-14T10:45:08.402Z,12.65
2023-02-14T10:47:43.515Z,11.20
2023-02-14T10:50:10.438Z,11.27
2023-02-14T10:53:17.229Z,12.50
2023-02-14T10:55:44.670Z,10.27
2023-02-14T10:58:24.399Z,12.32
2023-02-14T11:04:04.416Z,10.68
2023-02-14T11:06:35.748Z,11.85
2023-02-14T11:09:03.692Z,10.45
2023-02-14T11:11:43.776Z,11.65
2023-02-14T11:14:26.872Z,12.70
2023-02-14T11:16:57.896Z,10.80
2023-02-14T11:19:37.119Z,10.07
2023-02-14T11:22:05.466Z,11.57
2023-02-14T11:24:39.539Z,10.98
2023-02-14T11:27:12.970Z,11.80
2023-02-14T11:29:48.445Z,11.02
2023-02-14T11:32:30.952Z,12.35
2023-02-14T11:35:08.156Z,11.35
2023-02-14T11:37:48.989Z,12.07
2023-02-14T11:40:36.650Z,12.93
2023-02-14T11:43:16.140Z,11.27
2023-02-14T11:45:46.102Z,11.68
2023-02-14T11:48:37.812Z,11.77
2023-02-14T11:51:10.417Z,11.55
2023-02-14T11:53:49.690Z,11.82
2023-02-14T11:56:24.504Z,12.23
2023-02-14T11:58:58.824Z,11.25
2023-02-14T12:01:38.855Z,12.02
2023-02-14T12:04:17.847Z,12.05
2023-02-14T12:06:50.473Z,12.00
2023-02-14T12:09:44.092Z,11.82
2023-02-14T12:12:25.254Z,10.60
2023-02-14T12:14:52.718Z,11.93
2023-02-14T12:17:31.899Z,12.20
2023-02-14T12:20:15.249Z,11.38
2023-02-14T12:23:18.374Z,10.98
2023-02-14T12:25:54.693Z,10.45
2023-02-14T12:28:50.744Z,11.75
2023-02-14T12:31:20.431Z,10.70
2023-02-14T12:33:50.683Z,12.23
2023-02-14T12:36:36.342Z,12.32
2023-02-14T12:39:24.154Z,11.70
2023-02-14T12:42:11.179Z,12.52
2023-02-14T12:45:02.993Z,12.25
2023-02-14T12:48:02.149Z,12.00
2023-02-14T12:50:37.574Z,13.05
2023-02-14T12:53:29.726Z,11.85
2023-02-14T12:56:10.985Z,11.60
2023-02-14T12:59:03.005Z,11.90
2023-02-14T13:02:01.583Z,13.00
2023-02-14T13:04:45.596Z,12.00
2023-02-14T13:07:40.968Z,11.90
2023-02-14T13:10:37.982Z,13.55
2023-02-14T13:13:08.259Z,12.77
2023-02-14T13:15:38.028Z,11.77
2023-02-14T13:18:35.658Z,13.52
2023-02-14T13:21:10.779Z,12.32
2023-02-14T13:23:42.795Z,12.50
2023-02-14T13:26:24.262Z,12.13
2023-02-14T13:29:02.017Z,11.93
2023-02-14T13:31:29.325Z,11.68
2023-02-14T13:34:09.400Z,11.43
2023-02-14T13:36:37.805Z,11.77
2023-02-14T13:39:05.810Z,12.75
2023-02-14T13:41:34.832Z,13.88
2023-02-14T13:44:05.799Z,13.35
2023-02-14T13:46:33.219Z,12.85
2023-02-14T13:49:05.854Z,12.15
2023-02-14T13:51:51.145Z,13.32
2023-02-14T13:54:42.885Z,13.05
2023-02-14T13:57:36.810Z,13.70
2023-02-14T14:00:21.657Z,13.32
2023-02-14T14:02:53.616Z,12.00
2023-02-14T14:05:32.950Z,12.80
2023-02-14T14:08:25.443Z,13.57
2023-02-14T14:11:04.832Z,13.43
2023-02-14T14:13:41.301Z,13.25
2023-02-14T14:16:26.469Z,14.70
2023-02-14T14:19:00.401Z,13.07
2023-02-14T14:22:02.099Z,13.35
2023-02-14T14:24:34.846Z,13.88
2023-02-14T14:27:35.887Z,12.63
2023-02-14T14:30:30.015Z,13.57
2023-02-14T14:33:12.491Z,13.70
2023-02-14T14:35:43.090Z,12.68
2023-02-14T14:38:14.587Z,13.02
2023-02-14T14:40:46.917Z,12.93
2023-02-14T14:43:26.106Z,14.63
2023-02-14T14:45:56.271Z,13.75
2023-02-14T14:48:31.935Z,13.82
2023-02-14T14:50:59.820Z,13.30
2023-02-14T14:53:37.410Z,15.00
2023-02-14T14:56:04.781Z,13.55
2023-02-14T14:58:38.532Z,14.57
2023-02-14T15:01:08.101Z,13.57
2023-02-14T15:03:37.235Z,13.30
2023-02-14T15:06:18.805Z,13.73
2023-02-14T15:08:46.531Z,14.13
2023-02-14T15:11:46.005Z,13.23
2023-02-14T15:14:21.194Z,12.98
2023-02-14T15:16:59.621Z,14.02
2023-02-14T15:19:44.615Z,13.48
2023-02-14T15:22:27.587Z,12.95
2023-02-14T15:25:00.282Z,13.63
2023-02-14T15:27:29.331Z,14.07
2023-02-14T15:30:07.253Z,13.30
2023-02-14T15:32:36.569Z,13.10
2023-02-14T15:35:28.060Z,13.30
2023-02-14T15:38:01.371Z,13.80
2023-02-14T15:40:31.921Z,13.35
2023-02-14T15:43:14.138Z,13.85
2023-02-14T15:45:42.957Z,13.88
2023-02-14T15:48:20.464Z,13.48
2023-02-14T15:50:51.584Z,14.52
2023-02-14T15:53:34.154Z,13.68
2023-02-14T15:56:21.926Z,14.15
2023-02-14T15:58:49.899Z,13.40
2023-02-14T16:01:23.718Z,14.77
2023-02-14T16:04:01.029Z,14.02
2023-02-14T16:06:44.471Z,14.15
2023-02-14T16:09:34.664Z,13.85
2023-02-14T16:12:20.176Z,15.35
2023-02-14T16:15:09.501Z,14.27
2023-02-14T16:17:40.342Z,16.42
2023-02-14T16:20:28.175Z,14.27
2023-02-14T16:23:19.469Z,13.35
2023-02-14T16:25:47.531Z,14.52
2023-02-14T16:31:05.250Z,14.77
2023-02-14T16:33:35.706Z,16.80
2023-02-14T16:36:14.279Z,16.08
2023-02-14T16:38:44.233Z,14.50
2023-02-14T16:41:21.648Z,14.25
2023-02-14T16:43:56.731Z,14.55
2023-02-14T16:46:28.957Z,13.43
2023-02-14T16:48:59.666Z,14.50
2023-02-14T16:54:15.948Z,14.13
2023-02-14T16:56:54.187Z,13.35
2023-02-14T16:59:24.478Z,14.38
2023-02-14T17:01:55.330Z,14.30
2023-02-14T17:04:22.352Z,13.18
2023-02-14T17:06:57.601Z,14.05
2023-02-14T17:09:30.129Z,14.93
2023-02-14T17:12:02.920Z,13.43
2023-02-14T17:14:41.129Z,13.07
2023-02-14T17:17:09.458Z,12.60
2023-02-14T17:19:40.311Z,11.38
2023-02-14T17:24:49.357Z,11.32
2023-02-14T17:27:16.888Z,11.23
2023-02-14T17:29:47.100Z,12.10
2023-02-14T17:32:15.516Z,10.52
2023-02-14T17:34:42.993Z,11.95
2023-02-14T17:37:10.087Z,12.50
2023-02-14T17:39:37.513Z,13.23
2023-02-14T17:42:04.839Z,13.20
2023-02-14T17:44:36.045Z,9.95
2023-02-14T17:47:04.535Z,11.93
2023-02-14T17:49:31.787Z,12.45
2023-02-14T17:52:01.905Z,11.10
2023-02-14T17:54:29.114Z,12.10
2023-02-14T17:56:58.484Z,12.80
2023-02-14T17:59:28.489Z,12.55
2023-02-14T18:01:55.921Z,11.82
2023-02-14T18:04:30.737Z,12.00
2023-02-14T18:07:03.664Z,11.63
2023-02-14T18:09:30.952Z,10.88
2023-02-14T18:11:58.680Z,11.45
2023-02-14T18:14:26.009Z,10.68
2023-02-14T18:16:53.570Z,9.85
2023-02-14T18:19:23.195Z,11.02
2023-02-14T18:24:26.822Z,8.80
2023-02-14T18:26:55.604Z,10.70
2023-02-14T18:29:30.941Z,8.90
2023-02-14T18:32:00.024Z,9.13
2023-02-14T18:34:27.254Z,9.82
2023-02-14T18:36:54.971Z,9.90
2023-02-14T18:39:26.192Z,10.50
2023-02-14T18:42:00.402Z,8.80
2023-02-14T18:44:30.196Z,10.25
2023-02-14T18:49:39.076Z,10.68
2023-02-14T18:52:08.927Z,10.95
2023-02-14T18:54:36.315Z,10.32
2023-02-14T18:57:03.770Z,10.07
2023-02-14T18:59:31.425Z,10.90
2023-02-14T19:01:58.868Z,9.80
2023-02-14T19:04:26.371Z,11.13
2023-02-14T19:06:54.152Z,11.45
2023-02-14T19:09:21.769Z,9.35
2023-02-14T19:11:51.172Z,11.85
2023-02-14T19:14:18.646Z,10.20
2023-02-14T19:16:54.795Z,10.55
2023-02-14T19:19:23.471Z,11.15
2023-02-14T19:21:51.044Z,11.73
2023-02-14T19:24:26.052Z,10.48
2023-02-14T19:29:39.172Z,10.50
2023-02-14T19:32:06.806Z,10.55
2023-02-14T19:34:33.936Z,10.30
2023-02-14T19:37:03.937Z,10.20
2023-02-14T19:39:41.847Z,9.57
2023-02-14T19:42:09.196Z,10.35
2023-02-14T19:44:36.892Z,9.68
2023-02-14T19:47:25.272Z,9.82
2023-02-14T19:49:55.337Z,10.23
2023-02-14T19:52:28.391Z,11.40
2023-02-14T19:54:56.137Z,10.95
2023-02-14T19:57:23.545Z,11.45
2023-02-14T19:59:54.062Z,10.40
2023-02-14T20:02:22.459Z,9.75
2023-02-14T20:04:50.141Z,9.77
2023-02-14T20:07:17.553Z,9.35
2023-02-14T20:09:50.370Z,10.52
2023-02-14T20:12:20.136Z,9.30
2023-02-14T20:14:51.653Z,10.50
2023-02-14T20:17:19.540Z,8.98
2023-02-14T20:19:49.494Z,9.20
2023-02-14T20:22:16.667Z,9.18
2023-02-14T20:24:46.634Z,8.27
2023-02-14T20:27:13.627Z,8.48
2023-02-14T20:29:43.312Z,8.73
2023-02-14T20:32:16.990Z,7.90
2023-02-14T20:34:48.486Z,7.20
2023-02-14T20:37:15.720Z,9.18
2023-02-14T20:39:42.701Z,8.00
2023-02-14T20:42:12.794Z,9.13
2023-02-14T20:44:42.503Z,8.68
2023-02-14T20:47:10.945Z,8.95
2023-02-14T20:49:39.375Z,9.57
2023-02-14T20:52:06.764Z,9.25
2023-02-14T20:54:33.960Z,9.27
2023-02-14T20:57:01.393Z,9.05
2023-02-14T20:59:29.147Z,8.40
2023-02-14T21:02:01.976Z,9.23
2023-02-14T21:04:35.580Z,8.45
2023-02-14T21:07:08.625Z,8.70
2023-02-14T21:09:38.396Z,9.07
2023-02-14T21:12:07.774Z,7.97
2023-02-14T21:14:35.202Z,8.48
2023-02-14T21:17:04.421Z,7.82
2023-02-14T21:19:32.264Z,8.23
2023-02-14T21:22:07.958Z,8.73
2023-02-14T21:24:45.219Z,8.35
2023-02-14T21:27:12.551Z,8.32
2023-02-14T21:29:39.758Z,8.02
2023-02-14T21:32:07.093Z,8.18
2023-02-14T21:34:35.767Z,7.65
2023-02-14T21:39:45.127Z,7.97
2023-02-14T21:42:12.672Z,8.07
2023-02-14T21:45:06.843Z,8.30
2023-02-14T21:47:37.798Z,8.23
2023-02-14T21:52:53.799Z,9.02
2023-02-14T21:55:21.358Z,6.93
2023-02-14T21:57:52.798Z,8.57
2023-02-14T22:05:41.937Z,7.10
2023-02-14T22:08:09.251Z,6.40
2023-02-14T22:10:41.456Z,8.02
2023-02-14T22:13:08.625Z,8.45
2023-02-14T22:15:37.659Z,8.65
2023-02-14T22:18:05.141Z,7.65
2023-02-14T22:20:32.161Z,7.57
2023-02-14T22:23:05.199Z,7.88
2023-02-14T22:25:33.156Z,8.20
2023-02-14T22:28:00.491Z,7.43
2023-02-14T22:30:27.562Z,7.13
2023-02-14T22:32:54.805Z,8.35
2023-02-14T22:35:22.565Z,9.45
2023-02-14T22:37:49.796Z,7.88
2023-02-14T22:40:17.238Z,6.03
2023-02-14T22:43:04.462Z,9.05
2023-02-14T22:45:34.280Z,8.48
2023-02-14T22:48:04.526Z,9.15
2023-02-14T22:50:34.034Z,8.65
2023-02-14T22:53:02.729Z,9.88
2023-02-14T22:55:33.108Z,9.38
2023-02-14T22:58:06.063Z,9.30
2023-02-14T23:00:36.937Z,9.23
2023-02-14T23:03:04.047Z,8.15
2023-02-14T23:05:35.120Z,9.85
2023-02-14T23:10:29.072Z,7.60
2023-02-14T23:13:14.770Z,8.32
2023-02-14T23:16:09.273Z,8.38
2023-02-14T23:18:55.130Z,7.65
2023-02-14T23:21:40.542Z,8.63
2023-02-14T23:24:10.427Z,6.55
2023-02-14T23:26:38.642Z,7.00
2023-02-14T23:29:05.857Z,6.97
2023-02-14T23:31:33.049Z,8.48
2023-02-14T23:34:02.578Z,6.75
2023-02-14T23:36:31.122Z,7.90
2023-02-14T23:38:58.481Z,8.13
2023-02-14T23:41:44.785Z,8.65
2023-02-14T23:46:56.207Z,7.75
2023-02-14T23:49:23.812Z,7.78
2023-02-14T23:51:52.878Z,7.35
2023-02-14T23:54:21.010Z,6.75
2023-02-14T23:56:48.463Z,7.28
2023-02-14T23:59:16.364Z,6.78
